createdAt,value
2022-09-21T00:00:24.806Z,21.32
2022-09-21T00:01:25.004Z,21.27
2022-09-21T00:02:25.044Z,21.38
2022-09-21T00:03:25.062Z,21.91
2022-09-21T00:04:25.133Z,21.27
2022-09-21T00:05:25.213Z,21.27
2022-09-21T00:06:25.299Z,21.32
2022-09-21T00:07:25.391Z,21.27
2022-09-21T00:08:25.483Z,21.32
2022-09-21T00:09:25.534Z,21.27
2022-09-21T00:10:25.622Z,21.86
2022-09-21T00:11:25.706Z,21.91
2022-09-21T00:12:25.832Z,21.27
2022-09-21T00:13:25.870Z,21.27
2022-09-21T00:14:25.946Z,21.32
2022-09-21T00:15:26.025Z,21.91
2022-09-21T00:16:26.128Z,21.27
2022-09-21T00:17:26.324Z,21.27
2022-09-21T00:18:26.249Z,21.27
2022-09-21T00:19:26.321Z,21.32
2022-09-21T00:20:26.392Z,21.38
2022-09-21T00:21:26.474Z,21.38
2022-09-21T00:22:26.572Z,21.27
2022-09-21T00:23:26.618Z,21.27
2022-09-21T00:24:26.691Z,21.91
2022-09-21T00:25:26.822Z,21.27
2022-09-21T00:26:26.853Z,21.27
2022-09-21T00:27:26.955Z,21.38
2022-09-21T00:28:27.059Z,21.27
2022-09-21T00:29:27.131Z,21.32
2022-09-21T00:30:27.185Z,21.32
2022-09-21T00:31:27.322Z,21.91
2022-09-21T00:32:27.370Z,21.91
2022-09-21T00:33:27.408Z,21.86
2022-09-21T00:34:27.477Z,21.86
2022-09-21T00:35:27.577Z,21.32
2022-09-21T00:36:27.633Z,21.32
2022-09-21T00:37:27.753Z,21.27
2022-09-21T00:38:27.777Z,21.27
2022-09-21T00:39:27.860Z,21.22
2022-09-21T00:40:28.002Z,21.32
2022-09-21T00:41:28.075Z,21.86
2022-09-21T00:42:28.122Z,21.27
2022-09-21T00:43:28.229Z,21.32
2022-09-21T00:44:28.301Z,20.95
2022-09-21T00:45:28.425Z,20.89
2022-09-21T00:46:28.444Z,21.32
2022-09-21T00:47:28.567Z,21.32
2022-09-21T00:48:28.594Z,21.27
2022-09-21T00:49:28.682Z,21.32
2022-09-21T00:50:28.759Z,20.89
2022-09-21T00:51:28.860Z,20.89
2022-09-21T00:52:28.957Z,21.32
2022-09-21T00:53:29.012Z,21.32
2022-09-21T00:54:29.094Z,20.95
2022-09-21T00:55:29.175Z,21.32
2022-09-21T00:56:29.278Z,21.91
2022-09-21T00:57:29.359Z,21.32
2022-09-21T00:58:29.506Z,21.27
2022-09-21T00:59:30.519Z,21.27
2022-09-21T01:00:29.601Z,21.32
2022-09-21T01:01:29.695Z,21.32
2022-09-21T01:02:29.848Z,21.32
2022-09-21T01:03:29.838Z,21.27
2022-09-21T01:04:29.922Z,21.32
2022-09-21T01:05:29.988Z,21.38
2022-09-21T01:06:30.113Z,20.89
2022-09-21T01:07:30.134Z,21.27
2022-09-21T01:08:30.215Z,21.27
2022-09-21T01:09:30.288Z,21.27
2022-09-21T01:10:30.363Z,20.95
2022-09-21T01:11:30.472Z,21.32
2022-09-21T01:12:30.516Z,21.27
2022-09-21T01:13:30.606Z,21.27
2022-09-21T01:14:30.692Z,21.32
2022-09-21T01:15:30.783Z,21.27
2022-09-21T01:16:30.914Z,21.32
2022-09-21T01:17:31.021Z,21.32
2022-09-21T01:18:31.018Z,21.32
2022-09-21T01:19:31.085Z,20.95
2022-09-21T01:20:31.153Z,21.43
2022-09-21T01:21:31.275Z,21.32
2022-09-21T01:22:31.335Z,21.32
2022-09-21T01:23:31.415Z,21.32
2022-09-21T01:24:31.499Z,21.27
2022-09-21T01:25:31.569Z,21.27
2022-09-21T01:26:31.654Z,21.00
2022-09-21T01:27:31.727Z,21.27
2022-09-21T01:28:31.818Z,21.32
2022-09-21T01:29:31.883Z,20.89
2022-09-21T01:30:31.955Z,21.27
2022-09-21T01:31:32.165Z,21.32
2022-09-21T01:32:32.162Z,21.32
2022-09-21T01:33:32.235Z,21.32
2022-09-21T01:34:32.313Z,21.32
2022-09-21T01:35:32.388Z,21.27
2022-09-21T01:36:32.486Z,21.32
2022-09-21T01:37:32.555Z,21.27
2022-09-21T01:38:32.639Z,21.27
2022-09-21T01:39:32.713Z,21.32
2022-09-21T01:40:35.631Z,21.32
2022-09-21T01:41:32.898Z,20.95
2022-09-21T01:42:32.938Z,20.89
2022-09-21T01:43:33.011Z,21.38
2022-09-21T01:44:33.094Z,21.27
2022-09-21T01:45:33.204Z,21.32
2022-09-21T01:46:33.260Z,21.38
2022-09-21T01:47:33.328Z,21.27
2022-09-21T01:48:33.423Z,20.95
2022-09-21T01:49:33.500Z,20.95
2022-09-21T01:50:33.586Z,20.89
2022-09-21T01:51:33.666Z,21.32
2022-09-21T01:52:33.741Z,20.89
2022-09-21T01:53:33.822Z,20.84
2022-09-21T01:54:33.891Z,20.95
2022-09-21T01:55:33.982Z,20.95
2022-09-21T01:56:34.065Z,21.05
2022-09-21T01:57:34.152Z,21.32
2022-09-21T01:58:34.222Z,21.27
2022-09-21T01:59:34.303Z,21.27
2022-09-21T02:00:34.421Z,20.89
2022-09-21T02:01:34.468Z,21.27
2022-09-21T02:02:34.561Z,21.32
2022-09-21T02:03:34.652Z,21.27
2022-09-21T02:04:34.695Z,21.32
2022-09-21T02:05:34.844Z,21.32
2022-09-21T02:06:34.856Z,21.27
2022-09-21T02:07:34.976Z,21.38
2022-09-21T02:08:35.132Z,21.32
2022-09-21T02:09:35.104Z,20.89
2022-09-21T02:10:35.214Z,20.95
2022-09-21T02:11:35.263Z,20.89
2022-09-21T02:12:35.356Z,21.27
2022-09-21T02:13:35.429Z,21.27
2022-09-21T02:14:35.505Z,20.89
2022-09-21T02:15:35.630Z,21.32
2022-09-21T02:16:35.660Z,21.32
2022-09-21T02:17:35.740Z,21.38
2022-09-21T02:18:35.844Z,21.27
2022-09-21T02:19:35.913Z,21.27
2022-09-21T02:20:36.013Z,21.00
2022-09-21T02:21:36.093Z,21.32
2022-09-21T02:22:36.152Z,20.95
2022-09-21T02:23:36.225Z,21.32
2022-09-21T02:24:36.300Z,21.27
2022-09-21T02:25:36.416Z,21.32
2022-09-21T02:26:36.463Z,21.32
2022-09-21T02:27:36.535Z,21.38
2022-09-21T02:28:36.629Z,21.32
2022-09-21T02:29:36.699Z,21.27
2022-09-21T02:30:36.783Z,21.32
2022-09-21T02:31:36.904Z,20.89
2022-09-21T02:32:36.929Z,20.95
2022-09-21T02:33:37.031Z,21.27
2022-09-21T02:34:37.109Z,21.00
2022-09-21T02:35:37.220Z,21.32
2022-09-21T02:36:37.252Z,20.89
2022-09-21T02:37:37.357Z,20.89
2022-09-21T02:38:37.406Z,21.32
2022-09-21T02:39:37.473Z,21.27
2022-09-21T02:40:37.627Z,20.95
2022-09-21T02:41:37.611Z,20.89
2022-09-21T02:42:37.749Z,21.32
2022-09-21T02:43:37.827Z,20.89
2022-09-21T02:44:38.716Z,21.38
2022-09-21T02:45:37.961Z,21.32
2022-09-21T02:46:38.065Z,21.32
2022-09-21T02:47:38.075Z,21.32
2022-09-21T02:48:38.156Z,20.95
2022-09-21T02:49:38.250Z,21.27
2022-09-21T02:50:38.297Z,21.32
2022-09-21T02:51:38.391Z,21.32
2022-09-21T02:52:38.437Z,20.89
2022-09-21T02:53:38.545Z,21.32
2022-09-21T02:54:38.596Z,21.32
2022-09-21T02:55:38.683Z,20.95
2022-09-21T02:56:38.754Z,20.89
2022-09-21T02:57:38.825Z,21.32
2022-09-21T02:58:38.911Z,20.89
2022-09-21T02:59:39.016Z,21.27
2022-09-21T03:00:39.127Z,21.32
2022-09-21T03:01:39.205Z,20.95
2022-09-21T03:02:39.267Z,21.38
2022-09-21T03:03:39.369Z,21.32
2022-09-21T03:04:39.424Z,20.95
2022-09-21T03:05:39.509Z,21.32
2022-09-21T03:06:39.637Z,21.27
2022-09-21T03:07:39.669Z,21.32
2022-09-21T03:08:39.735Z,21.27
2022-09-21T03:09:39.847Z,20.89
2022-09-21T03:10:39.881Z,21.27
2022-09-21T03:11:39.960Z,21.27
2022-09-21T03:12:40.048Z,21.27
2022-09-21T03:13:40.136Z,21.11
2022-09-21T03:14:40.310Z,20.84
2022-09-21T03:15:40.332Z,20.89
2022-09-21T03:16:40.386Z,21.27
2022-09-21T03:17:40.477Z,20.89
2022-09-21T03:18:40.558Z,21.32
2022-09-21T03:19:40.647Z,20.89
2022-09-21T03:20:40.753Z,21.32
2022-09-21T03:21:44.463Z,21.00
2022-09-21T03:22:40.881Z,20.95
2022-09-21T03:23:40.964Z,20.89
2022-09-21T03:24:41.055Z,21.32
2022-09-21T03:25:41.147Z,21.27
2022-09-21T03:26:41.278Z,21.32
2022-09-21T03:27:41.306Z,21.32
2022-09-21T03:28:41.406Z,21.32
2022-09-21T03:29:41.501Z,21.32
2022-09-21T03:30:41.544Z,20.89
2022-09-21T03:31:41.628Z,21.27
2022-09-21T03:32:41.697Z,20.84
2022-09-21T03:33:41.780Z,20.89
2022-09-21T03:34:41.885Z,21.27
2022-09-21T03:35:41.934Z,20.95
2022-09-21T03:36:42.021Z,20.95
2022-09-21T03:37:42.127Z,20.95
2022-09-21T03:38:42.191Z,20.89
2022-09-21T03:39:42.273Z,20.89
2022-09-21T03:40:42.382Z,20.95
2022-09-21T03:41:42.438Z,21.32
2022-09-21T03:42:42.519Z,21.05
2022-09-21T03:43:42.586Z,21.32
2022-09-21T03:44:42.671Z,20.89
2022-09-21T03:45:42.761Z,21.32
2022-09-21T03:46:42.835Z,21.32
2022-09-21T03:47:42.924Z,20.95
2022-09-21T03:48:42.991Z,21.32
2022-09-21T03:49:43.093Z,20.89
2022-09-21T03:50:43.154Z,21.38
2022-09-21T03:51:43.207Z,20.89
2022-09-21T03:52:43.302Z,21.32
2022-09-21T03:53:43.390Z,20.89
2022-09-21T03:54:43.473Z,21.27
2022-09-21T03:55:43.550Z,20.95
2022-09-21T03:56:43.631Z,20.95
2022-09-21T03:57:43.707Z,20.89
2022-09-21T03:58:43.774Z,21.27
2022-09-21T03:59:43.877Z,21.27
2022-09-21T04:00:44.031Z,20.89
2022-09-21T04:01:44.135Z,21.27
2022-09-21T04:02:44.177Z,21.32
2022-09-21T04:03:44.182Z,21.32
2022-09-21T04:04:44.665Z,21.32
2022-09-21T04:05:44.390Z,21.32
2022-09-21T04:06:44.455Z,21.27
2022-09-21T04:07:44.496Z,21.32
2022-09-21T04:08:44.598Z,21.27
2022-09-21T04:09:44.691Z,21.27
2022-09-21T04:10:44.791Z,21.38
2022-09-21T04:11:44.832Z,20.95
2022-09-21T04:12:44.940Z,21.32
2022-09-21T04:13:45.023Z,21.27
2022-09-21T04:14:45.111Z,21.32
2022-09-21T04:15:45.264Z,20.89
2022-09-21T04:16:45.281Z,20.89
2022-09-21T04:17:45.370Z,21.27
2022-09-21T04:18:45.420Z,21.32
2022-09-21T04:19:45.490Z,21.27
2022-09-21T04:20:45.571Z,21.32
2022-09-21T04:21:45.626Z,21.32
2022-09-21T04:22:45.695Z,21.32
2022-09-21T04:23:45.769Z,21.38
2022-09-21T04:24:45.848Z,21.27
2022-09-21T04:25:45.897Z,20.95
2022-09-21T04:26:45.994Z,21.32
2022-09-21T04:27:46.041Z,20.89
2022-09-21T04:28:46.121Z,21.38
2022-09-21T04:29:46.200Z,21.32
2022-09-21T04:30:46.311Z,20.89
2022-09-21T04:31:46.350Z,20.95
2022-09-21T04:32:46.427Z,21.32
2022-09-21T04:33:46.504Z,20.89
2022-09-21T04:34:46.604Z,21.00
2022-09-21T04:35:46.685Z,21.32
2022-09-21T04:36:46.767Z,20.95
2022-09-21T04:37:46.878Z,20.89
2022-09-21T04:38:46.947Z,20.89
2022-09-21T04:39:47.008Z,20.89
2022-09-21T04:40:47.087Z,20.89
2022-09-21T04:41:47.175Z,21.27
2022-09-21T04:42:47.272Z,20.89
2022-09-21T04:43:47.320Z,21.38
2022-09-21T04:44:47.412Z,20.89
2022-09-21T04:45:47.510Z,21.32
2022-09-21T04:46:47.626Z,21.38
2022-09-21T04:47:47.654Z,20.95
2022-09-21T04:48:47.760Z,20.95
2022-09-21T04:49:47.910Z,20.89
2022-09-21T04:50:47.917Z,20.89
2022-09-21T04:51:47.994Z,20.89
2022-09-21T04:52:48.068Z,21.32
2022-09-21T04:53:48.178Z,20.95
2022-09-21T04:54:48.229Z,21.43
2022-09-21T04:55:48.325Z,21.27
2022-09-21T04:56:48.394Z,21.27
2022-09-21T04:57:48.454Z,21.38
2022-09-21T04:58:48.552Z,21.27
2022-09-21T04:59:48.603Z,21.27
2022-09-21T05:00:48.708Z,20.89
2022-09-21T05:01:48.862Z,21.27
2022-09-21T05:02:48.853Z,20.95
2022-09-21T05:03:48.962Z,21.27
2022-09-21T05:04:51.134Z,21.27
2022-09-21T05:05:49.100Z,21.38
2022-09-21T05:06:49.204Z,20.95
2022-09-21T05:07:49.240Z,21.32
2022-09-21T05:08:49.388Z,21.00
2022-09-21T05:09:49.410Z,21.32
2022-09-21T05:10:49.493Z,20.89
2022-09-21T05:11:49.549Z,20.89
2022-09-21T05:12:49.628Z,21.32
2022-09-21T05:13:49.720Z,21.27
2022-09-21T05:14:49.781Z,21.27
2022-09-21T05:15:49.880Z,20.95
2022-09-21T05:16:49.942Z,21.32
2022-09-21T05:17:50.014Z,20.89
2022-09-21T05:18:50.116Z,21.32
2022-09-21T05:19:50.168Z,20.89
2022-09-21T05:20:50.267Z,21.32
2022-09-21T05:21:50.324Z,20.89
2022-09-21T05:22:50.409Z,21.32
2022-09-21T05:23:50.546Z,20.89
2022-09-21T05:24:50.604Z,21.32
2022-09-21T05:25:50.612Z,20.95
2022-09-21T05:26:50.705Z,20.84
2022-09-21T05:27:50.761Z,20.89
2022-09-21T05:28:50.893Z,21.32
2022-09-21T05:29:50.901Z,20.89
2022-09-21T05:31:07.470Z,21.00
2022-09-21T05:31:51.061Z,20.89
2022-09-21T05:32:51.131Z,20.95
2022-09-21T05:33:51.237Z,21.32
2022-09-21T05:34:51.291Z,20.89
2022-09-21T05:35:51.372Z,20.89
2022-09-21T05:36:51.459Z,21.38
2022-09-21T05:37:51.540Z,21.38
2022-09-21T05:38:51.687Z,20.89
2022-09-21T05:39:51.691Z,21.32
2022-09-21T05:40:51.765Z,20.95
2022-09-21T05:41:51.831Z,21.27
2022-09-21T05:42:51.922Z,21.00
2022-09-21T05:43:52.050Z,20.95
2022-09-21T05:44:52.053Z,20.95
2022-09-21T05:45:52.256Z,21.32
2022-09-21T05:46:56.091Z,20.95
2022-09-21T05:47:52.287Z,20.89
2022-09-21T05:48:52.358Z,21.32
2022-09-21T05:49:52.443Z,21.00
2022-09-21T05:50:52.580Z,20.89
2022-09-21T05:51:52.595Z,20.95
2022-09-21T05:52:52.686Z,20.95
2022-09-21T05:53:52.780Z,20.89
2022-09-21T05:54:52.837Z,20.95
2022-09-21T05:55:52.905Z,21.27
2022-09-21T05:56:52.986Z,20.95
2022-09-21T05:57:53.083Z,20.95
2022-09-21T05:58:53.147Z,20.95
2022-09-21T05:59:53.233Z,21.38
2022-09-21T06:00:53.320Z,20.95
2022-09-21T06:01:53.404Z,21.32
2022-09-21T06:02:53.466Z,21.32
2022-09-21T06:03:53.582Z,20.89
2022-09-21T06:04:53.695Z,20.95
2022-09-21T06:05:53.712Z,20.89
2022-09-21T06:06:53.816Z,21.27
2022-09-21T06:07:53.852Z,21.27
2022-09-21T06:08:53.926Z,21.27
2022-09-21T06:09:54.002Z,21.00
2022-09-21T06:10:54.083Z,20.84
2022-09-21T06:11:54.165Z,20.89
2022-09-21T06:12:54.250Z,21.32
2022-09-21T06:13:54.431Z,20.95
2022-09-21T06:14:54.387Z,20.84
2022-09-21T06:15:54.480Z,20.84
2022-09-21T06:16:54.651Z,21.32
2022-09-21T06:17:54.667Z,20.89
2022-09-21T06:18:54.732Z,20.95
2022-09-21T06:19:54.806Z,20.95
2022-09-21T06:20:54.871Z,20.95
2022-09-21T06:21:54.958Z,20.89
2022-09-21T06:22:55.049Z,20.95
2022-09-21T06:23:55.130Z,20.89
2022-09-21T06:24:55.214Z,20.89
2022-09-21T06:25:58.462Z,20.95
2022-09-21T06:26:55.367Z,20.89
2022-09-21T06:27:55.434Z,20.95
2022-09-21T06:28:55.514Z,20.89
2022-09-21T06:29:55.610Z,20.52
2022-09-21T06:30:55.773Z,20.95
2022-09-21T06:31:55.784Z,20.46
2022-09-21T06:32:55.854Z,20.57
2022-09-21T06:33:55.925Z,21.00
2022-09-21T06:34:56.009Z,20.89
2022-09-21T06:35:56.093Z,20.95
2022-09-21T06:36:56.183Z,20.57
2022-09-21T06:37:56.278Z,21.27
2022-09-21T06:38:56.329Z,20.89
2022-09-21T06:39:56.406Z,20.52
2022-09-21T06:40:56.487Z,20.57
2022-09-21T06:41:56.570Z,20.57
2022-09-21T06:42:56.646Z,20.25
2022-09-21T06:43:56.703Z,20.14
2022-09-21T06:44:56.796Z,20.57
2022-09-21T06:45:56.967Z,20.14
2022-09-21T06:46:56.950Z,20.09
2022-09-21T06:47:57.033Z,20.57
2022-09-21T06:48:57.120Z,20.95
2022-09-21T06:49:57.176Z,20.57
2022-09-21T06:50:57.252Z,20.57
2022-09-21T06:51:57.323Z,20.14
2022-09-21T06:52:57.407Z,20.14
2022-09-21T06:53:57.495Z,20.20
2022-09-21T06:54:57.564Z,20.14
2022-09-21T06:55:57.656Z,20.57
2022-09-21T06:57:00.080Z,20.14
2022-09-21T06:57:57.802Z,20.20
2022-09-21T06:58:57.950Z,20.14
2022-09-21T06:59:57.960Z,20.14
2022-09-21T07:00:58.131Z,20.14
2022-09-21T07:01:58.309Z,20.20
2022-09-21T07:02:58.218Z,20.20
2022-09-21T07:03:58.274Z,20.30
2022-09-21T07:04:58.343Z,20.14
2022-09-21T07:05:58.415Z,19.77
2022-09-21T07:07:00.834Z,20.14
2022-09-21T07:07:58.861Z,19.82
2022-09-21T07:10:06.979Z,19.82
2022-09-21T07:10:58.840Z,19.98
2022-09-21T07:11:58.949Z,20.14
2022-09-21T07:12:59.046Z,19.77
2022-09-21T07:13:59.061Z,19.77
2022-09-21T07:14:59.211Z,19.77
2022-09-21T07:16:00.348Z,19.77
2022-09-21T07:16:59.444Z,19.77
2022-09-21T07:18:06.668Z,19.77
2022-09-21T07:19:10.086Z,19.77
2022-09-21T07:19:59.629Z,19.71
2022-09-21T07:20:59.648Z,19.77
2022-09-21T07:21:59.775Z,19.77
2022-09-21T07:22:59.862Z,19.77
2022-09-21T07:23:59.905Z,20.20
2022-09-21T07:25:00.319Z,19.71
2022-09-21T07:26:00.052Z,19.77
2022-09-21T07:27:00.081Z,19.77
2022-09-21T07:28:00.535Z,19.82
2022-09-21T07:29:00.268Z,19.71
2022-09-21T07:30:00.246Z,19.77
2022-09-21T07:31:00.331Z,19.77
2022-09-21T07:32:00.507Z,19.77
2022-09-21T07:33:00.537Z,19.87
2022-09-21T07:34:00.571Z,19.82
2022-09-21T07:35:00.661Z,19.77
2022-09-21T07:36:00.728Z,19.82
2022-09-21T07:37:00.812Z,19.77
2022-09-21T07:38:00.902Z,19.60
2022-09-21T07:39:00.978Z,19.82
2022-09-21T07:40:01.094Z,19.55
2022-09-21T07:41:01.162Z,19.55
2022-09-21T07:42:01.232Z,19.77
2022-09-21T07:43:01.290Z,20.09
2022-09-21T07:44:01.438Z,19.55
2022-09-21T07:45:04.980Z,19.77
2022-09-21T07:46:01.778Z,20.20
2022-09-21T07:47:01.586Z,20.20
2022-09-21T07:48:01.726Z,20.14
2022-09-21T07:49:01.920Z,19.77
2022-09-21T07:50:01.810Z,19.77
2022-09-21T07:51:01.899Z,19.77
2022-09-21T07:52:05.625Z,19.77
2022-09-21T07:53:02.098Z,20.14
2022-09-21T07:54:02.141Z,19.77
2022-09-21T07:55:02.205Z,20.20
2022-09-21T07:56:02.296Z,20.14
2022-09-21T07:57:02.385Z,20.14
2022-09-21T07:58:02.458Z,19.77
2022-09-21T07:59:02.531Z,19.71
2022-09-21T08:00:02.634Z,20.09
2022-09-21T08:01:02.738Z,19.71
2022-09-21T08:02:02.845Z,20.14
2022-09-21T08:03:02.884Z,19.77
2022-09-21T08:04:02.949Z,20.14
2022-09-21T08:05:03.024Z,19.77
2022-09-21T08:06:03.104Z,20.20
2022-09-21T08:07:03.179Z,19.77
2022-09-21T08:08:03.299Z,19.87
2022-09-21T08:09:03.403Z,19.77
2022-09-21T08:10:03.418Z,19.77
2022-09-21T08:11:03.529Z,19.82
2022-09-21T08:12:03.587Z,19.77
2022-09-21T08:13:03.714Z,19.77
2022-09-21T08:14:03.765Z,19.77
2022-09-21T08:15:03.842Z,20.14
2022-09-21T08:16:03.968Z,19.82
2022-09-21T08:17:03.955Z,19.77
2022-09-21T08:18:04.042Z,19.71
2022-09-21T08:19:04.107Z,19.77
2022-09-21T08:20:04.221Z,20.14
2022-09-21T08:21:04.281Z,19.77
2022-09-21T08:22:04.347Z,19.77
2022-09-21T08:23:04.405Z,19.77
2022-09-21T08:24:04.545Z,19.77
2022-09-21T08:25:04.568Z,19.77
2022-09-21T08:26:04.699Z,19.77
2022-09-21T08:27:04.735Z,19.77
2022-09-21T08:28:09.451Z,20.14
2022-09-21T08:29:05.050Z,19.71
2022-09-21T08:30:05.025Z,19.77
2022-09-21T08:31:05.114Z,19.82
2022-09-21T08:32:05.162Z,19.77
2022-09-21T08:33:05.239Z,19.77
2022-09-21T08:34:05.310Z,19.82
2022-09-21T08:35:05.383Z,19.82
2022-09-21T08:36:05.478Z,19.77
2022-09-21T08:37:05.554Z,19.71
2022-09-21T08:38:05.605Z,19.77
2022-09-21T08:39:05.822Z,19.77
2022-09-21T08:40:05.803Z,19.77
2022-09-21T08:41:05.872Z,19.77
2022-09-21T08:42:05.940Z,19.77
2022-09-21T08:43:05.984Z,19.71
2022-09-21T08:44:06.094Z,19.77
2022-09-21T08:45:06.153Z,20.09
2022-09-21T08:46:06.230Z,19.77
2022-09-21T08:47:06.421Z,19.77
2022-09-21T08:48:06.423Z,19.82
2022-09-21T08:49:06.480Z,19.82
2022-09-21T08:50:06.557Z,19.77
2022-09-21T08:51:06.630Z,19.55
2022-09-21T08:52:06.825Z,20.20
2022-09-21T08:53:06.791Z,19.77
2022-09-21T08:54:06.886Z,19.77
2022-09-21T08:55:06.949Z,20.20
2022-09-21T08:56:07.055Z,19.77
2022-09-21T08:57:07.115Z,19.82
2022-09-21T08:58:07.215Z,20.25
2022-09-21T08:59:07.372Z,19.71
2022-09-21T09:00:07.360Z,19.71
2022-09-21T09:01:07.611Z,20.09
2022-09-21T09:02:07.608Z,20.14
2022-09-21T09:03:07.602Z,20.20
2022-09-21T09:04:07.835Z,20.14
2022-09-21T09:05:07.779Z,20.20
2022-09-21T09:06:07.859Z,19.77
2022-09-21T09:07:07.957Z,20.14
2022-09-21T09:08:08.071Z,20.14
2022-09-21T09:09:08.207Z,19.82
2022-09-21T09:10:08.184Z,19.82
2022-09-21T09:11:08.275Z,20.25
2022-09-21T09:12:11.069Z,19.77
2022-09-21T09:13:08.439Z,19.77
2022-09-21T09:14:08.516Z,20.14
2022-09-21T09:15:08.585Z,20.14
2022-09-21T09:16:08.702Z,20.14
2022-09-21T09:17:08.742Z,20.14
2022-09-21T09:18:08.816Z,20.09
2022-09-21T09:19:08.941Z,20.14
2022-09-21T09:20:09.141Z,20.14
2022-09-21T09:21:09.093Z,20.14
2022-09-21T09:22:09.192Z,20.20
2022-09-21T09:23:09.235Z,20.14
2022-09-21T09:24:09.355Z,20.25
2022-09-21T09:25:09.410Z,20.14
2022-09-21T09:26:09.497Z,19.77
2022-09-21T09:27:09.583Z,20.09
2022-09-21T09:28:09.681Z,20.20
2022-09-21T09:29:09.782Z,19.77
2022-09-21T09:30:09.825Z,20.14
2022-09-21T09:31:09.932Z,19.77
2022-09-21T09:32:10.011Z,19.77
2022-09-21T09:33:10.062Z,20.09
2022-09-21T09:34:10.171Z,20.14
2022-09-21T09:35:10.206Z,20.09
2022-09-21T09:36:10.293Z,20.14
2022-09-21T09:37:10.374Z,19.77
2022-09-21T09:38:10.451Z,20.20
2022-09-21T09:39:10.551Z,19.77
2022-09-21T09:40:10.636Z,20.20
2022-09-21T09:41:10.699Z,19.77
2022-09-21T09:42:10.799Z,19.77
2022-09-21T09:43:10.850Z,20.14
2022-09-21T09:44:10.931Z,19.82
2022-09-21T09:45:10.987Z,19.77
2022-09-21T09:46:13.235Z,20.14
2022-09-21T09:47:11.143Z,20.14
2022-09-21T09:48:11.248Z,20.14
2022-09-21T09:49:11.340Z,20.14
2022-09-21T09:50:11.389Z,20.25
2022-09-21T09:51:11.479Z,19.77
2022-09-21T09:52:11.605Z,19.77
2022-09-21T09:53:11.631Z,20.20
2022-09-21T09:54:11.808Z,20.20
2022-09-21T09:55:11.786Z,20.14
2022-09-21T09:56:11.872Z,20.20
2022-09-21T09:57:11.963Z,20.20
2022-09-21T09:58:12.018Z,19.82
2022-09-21T09:59:12.087Z,20.20
2022-09-21T10:00:12.179Z,20.14
2022-09-21T10:01:12.272Z,20.14
2022-09-21T10:02:12.396Z,19.82
2022-09-21T10:03:12.396Z,20.14
2022-09-21T10:04:12.548Z,20.14
2022-09-21T10:05:12.622Z,20.20
2022-09-21T10:06:12.667Z,20.20
2022-09-21T10:07:12.744Z,19.77
2022-09-21T10:08:12.800Z,19.77
2022-09-21T10:09:12.876Z,20.25
2022-09-21T10:10:12.966Z,19.77
2022-09-21T10:11:13.034Z,20.14
2022-09-21T10:12:13.113Z,19.82
2022-09-21T10:13:13.191Z,19.77
2022-09-21T10:14:13.270Z,20.09
2022-09-21T10:15:13.353Z,20.14
2022-09-21T10:16:13.544Z,20.14
2022-09-21T10:17:13.502Z,20.14
2022-09-21T10:18:13.595Z,20.20
2022-09-21T10:19:13.703Z,20.20
2022-09-21T10:20:13.776Z,20.20
2022-09-21T10:21:13.862Z,20.14
2022-09-21T10:22:13.966Z,19.82
2022-09-21T10:23:14.040Z,20.25
2022-09-21T10:24:14.125Z,20.14
2022-09-21T10:25:14.221Z,19.87
2022-09-21T10:26:14.297Z,20.14
2022-09-21T10:27:14.384Z,20.20
2022-09-21T10:28:14.476Z,20.20
2022-09-21T10:29:14.575Z,20.20
2022-09-21T10:30:14.671Z,20.09
2022-09-21T10:31:14.747Z,20.20
2022-09-21T10:32:15.313Z,20.14
2022-09-21T10:33:14.902Z,20.14
2022-09-21T10:34:14.971Z,20.14
2022-09-21T10:35:15.067Z,20.52
2022-09-21T10:36:15.107Z,20.14
2022-09-21T10:37:15.185Z,20.52
2022-09-21T10:38:18.517Z,20.14
2022-09-21T10:39:15.346Z,20.52
2022-09-21T10:40:15.482Z,20.57
2022-09-21T10:41:15.531Z,20.14
2022-09-21T10:42:15.629Z,20.20
2022-09-21T10:43:15.672Z,20.14
2022-09-21T10:44:15.774Z,20.14
2022-09-21T10:45:15.840Z,20.20
2022-09-21T10:46:15.963Z,20.09
2022-09-21T10:47:16.830Z,20.57
2022-09-21T10:48:16.049Z,20.62
2022-09-21T10:49:16.114Z,20.14
2022-09-21T10:50:16.208Z,20.14
2022-09-21T10:51:16.295Z,20.62
2022-09-21T10:52:16.384Z,20.57
2022-09-21T10:53:16.451Z,20.14
2022-09-21T10:54:16.531Z,20.57
2022-09-21T10:55:16.621Z,20.25
2022-09-21T10:56:17.705Z,20.14
2022-09-21T10:57:16.753Z,20.14
2022-09-21T10:58:16.841Z,20.20
2022-09-21T10:59:16.926Z,20.14
2022-09-21T11:00:18.052Z,20.20
2022-09-21T11:01:18.417Z,20.57
2022-09-21T11:02:17.207Z,20.52
2022-09-21T11:03:17.232Z,20.14
2022-09-21T11:04:17.338Z,20.52
2022-09-21T11:05:17.395Z,20.52
2022-09-21T11:06:17.476Z,20.57
2022-09-21T11:07:17.562Z,20.20
2022-09-21T11:08:17.652Z,20.52
2022-09-21T11:09:17.775Z,20.52
2022-09-21T11:10:17.811Z,20.14
2022-09-21T11:11:17.897Z,20.57
2022-09-21T11:12:17.968Z,20.57
2022-09-21T11:13:18.028Z,20.25
2022-09-21T11:14:18.124Z,20.57
2022-09-21T11:15:18.198Z,20.52
2022-09-21T11:16:18.337Z,20.57
2022-09-21T11:17:18.329Z,20.52
2022-09-21T11:18:18.413Z,20.52
2022-09-21T11:19:18.545Z,20.57
2022-09-21T11:20:18.637Z,20.57
2022-09-21T11:21:18.655Z,20.57
2022-09-21T11:22:18.792Z,20.95
2022-09-21T11:23:18.822Z,20.95
2022-09-21T11:24:18.924Z,20.95
2022-09-21T11:25:19.031Z,20.95
2022-09-21T11:26:19.071Z,20.57
2022-09-21T11:27:19.137Z,20.89
2022-09-21T11:28:19.222Z,21.32
2022-09-21T11:29:19.333Z,20.95
2022-09-21T11:30:19.439Z,20.89
2022-09-21T11:31:19.534Z,20.95
2022-09-21T11:32:19.530Z,21.32
2022-09-21T11:33:19.595Z,20.89
2022-09-21T11:34:19.680Z,21.32
2022-09-21T11:35:19.754Z,21.27
2022-09-21T11:36:19.842Z,21.32
2022-09-21T11:37:19.910Z,20.95
2022-09-21T11:38:19.989Z,21.32
2022-09-21T11:39:20.117Z,21.32
2022-09-21T11:40:20.262Z,21.38
2022-09-21T11:41:20.246Z,21.32
2022-09-21T11:42:20.366Z,21.32
2022-09-21T11:43:22.748Z,21.32
2022-09-21T11:44:20.466Z,21.32
2022-09-21T11:45:20.627Z,21.27
2022-09-21T11:46:20.707Z,21.38
2022-09-21T11:47:20.691Z,21.32
2022-09-21T11:48:21.035Z,21.38
2022-09-21T11:49:20.845Z,21.32
2022-09-21T11:50:31.535Z,21.32
2022-09-21T11:51:21.010Z,21.27
2022-09-21T11:52:21.078Z,20.89
2022-09-21T11:53:21.158Z,21.32
2022-09-21T11:54:21.300Z,21.32
2022-09-21T11:55:21.323Z,21.38
2022-09-21T11:56:21.407Z,20.89
2022-09-21T11:57:21.486Z,21.32
2022-09-21T11:58:21.581Z,21.32
2022-09-21T11:59:21.675Z,21.38
2022-09-21T12:00:21.733Z,21.32
2022-09-21T12:01:21.818Z,20.89
2022-09-21T12:02:22.115Z,21.32
2022-09-21T12:03:21.990Z,21.32
2022-09-21T12:04:22.077Z,21.32
2022-09-21T12:05:22.263Z,21.32
2022-09-21T12:06:22.272Z,21.32
2022-09-21T12:07:22.283Z,21.32
2022-09-21T12:08:22.419Z,21.38
2022-09-21T12:09:22.468Z,21.32
2022-09-21T12:10:22.540Z,21.32
2022-09-21T12:11:22.595Z,21.38
2022-09-21T12:12:22.729Z,21.32
2022-09-21T12:13:22.752Z,21.91
2022-09-21T12:14:22.845Z,21.97
2022-09-21T12:15:22.909Z,21.27
2022-09-21T12:16:22.997Z,21.32
2022-09-21T12:17:23.043Z,21.32
2022-09-21T12:18:23.134Z,21.32
2022-09-21T12:19:23.226Z,21.32
2022-09-21T12:20:23.271Z,21.32
2022-09-21T12:21:23.404Z,21.27
2022-09-21T12:22:23.426Z,21.32
2022-09-21T12:23:23.521Z,20.84
2022-09-21T12:24:23.573Z,20.52
2022-09-21T12:25:23.655Z,21.32
2022-09-21T12:26:23.797Z,20.89
2022-09-21T12:27:23.955Z,21.00
2022-09-21T12:28:24.319Z,21.32
2022-09-21T12:29:24.027Z,20.89
2022-09-21T12:30:24.138Z,21.27
2022-09-21T12:31:24.143Z,20.89
2022-09-21T12:32:24.192Z,20.95
2022-09-21T12:33:24.356Z,20.57
2022-09-21T12:34:24.359Z,20.62
2022-09-21T12:35:24.408Z,20.52
2022-09-21T12:36:24.548Z,20.95
2022-09-21T12:37:24.604Z,21.32
2022-09-21T12:38:24.720Z,20.95
2022-09-21T12:39:24.719Z,21.38
2022-09-21T12:40:24.907Z,20.57
2022-09-21T12:41:24.888Z,21.00
2022-09-21T12:42:24.974Z,20.95
2022-09-21T12:43:25.085Z,20.95
2022-09-21T12:44:25.121Z,20.95
2022-09-21T12:45:25.212Z,21.38
2022-09-21T12:46:25.382Z,20.95
2022-09-21T12:47:25.381Z,21.32
2022-09-21T12:48:25.483Z,21.27
2022-09-21T12:49:25.535Z,20.95
2022-09-21T12:50:25.629Z,21.38
2022-09-21T12:51:25.698Z,20.89
2022-09-21T12:52:25.800Z,20.95
2022-09-21T12:53:25.879Z,21.27
2022-09-21T12:54:25.939Z,20.95